• Join FlightAware (Why Join?)
  • Login
  • US Flag 
07:38AM EDT


 

Airport Tracker/Info


-or-


 

Live Flight TrackerFlight Track Log ✈ N5208R ✈ 06-Jun-2013 ✈ KOSU - KRYV

Flight Track Log - Related Links

Times and Time Zones

All times are in EDT time to prevent confusion due to time zone crossing. See the N5208R flight status page for this flight to view local times or setup timezone preferences in your user account.

Time Position Orientation Groundspeed Altitude Reporting Facility
EDT Latitude Longitude Course Direction KTS MPH feet Rate Location/Type
06:12PM 40.0769 -83.0467 85° East 84 97 1,500  Level Indianapolis Center
06:13PM 40.0878 -83.0281 53° Northeast 72 83 2,100 540 Climbing Indianapolis Center
06:14PM 40.1039 -83.0069 45° Northeast 75 86 2,600 480 Climbing Indianapolis Center
06:15PM 40.1261 -83.0097 355° North 93 107 3,100 540 Climbing Indianapolis Center
06:16PM 40.1439 -83.0442 304° West 96 110 3,800 420 Climbing Indianapolis Center
06:17PM 40.1606 -83.0722 308° West 97 112 4,000 240 Climbing Indianapolis Center
06:18PM 40.1817 -83.1092 307° West 111 128 4,300 360 Climbing Indianapolis Center
06:19PM 40.2000 -83.1431 305° West 102 117 4,800 480 Climbing Indianapolis Center
06:20PM 40.2181 -83.1717 310° West 108 124 5,300 420 Climbing Indianapolis Center
06:21PM 40.2344 -83.1989 308° West 98 113 5,800 480 Climbing Indianapolis Center
06:22PM 40.2508 -83.2272 307° West 97 112 6,400 480 Climbing Indianapolis Center
06:23PM 40.2689 -83.2586 307° West 93 107 6,900 420 Climbing Indianapolis Center
06:24PM 40.2847 -83.2858 307° West 93 107 7,300 300 Climbing Indianapolis Center
06:25PM 40.3011 -83.3144 307° West 96 110 7,600 300 Climbing Indianapolis Center
06:26PM 40.3172 -83.3428 307° West 97 112 8,000 180 Climbing Indianapolis Center
06:27PM 40.3367 -83.3739 309° West 107 123 8,000 -60 Level Indianapolis Center
06:28PM 40.3564 -83.4097 306° West 118 136 7,900 -60 Descending Indianapolis Center
06:29PM 40.3800 -83.4519 306° West 121 139 7,900  Level Indianapolis Center
06:30PM 40.4011 -83.4872 308° West 122 140 7,900  Level Indianapolis Center
06:31PM 40.4217 -83.5217 308° West 120 138 7,900  Level Indianapolis Center
06:32PM 40.4422 -83.5581 307° West 122 140 7,900  Level Indianapolis Center
06:33PM 40.4622 -83.5942 306° West 122 140 7,900  Level Indianapolis Center
06:34PM 40.4836 -83.6294 309° West 123 142 7,900  Level Indianapolis Center
06:35PM 40.5036 -83.6656 306° West 122 140 7,900  Level Indianapolis Center
06:36PM 40.5283 -83.7078 308° West 124 143 7,900  Level Indianapolis Center
06:37PM 40.5489 -83.7431 307° West 122 140 7,900  Level Indianapolis Center
06:38PM 40.5689 -83.7794 306° West 122 140 7,900  Level Indianapolis Center
06:40PM 40.5897 -83.8158 307° West 123 142 7,900  Level Indianapolis Center
06:41PM 40.6097 -83.8517 306° West 122 140 7,900  Level Indianapolis Center
06:42PM 40.6303 -83.8881 307° West 122 140 7,900  Level Indianapolis Center
06:43PM 40.6511 -83.9228 308° West 121 139 7,900  Level Indianapolis Center
06:44PM 40.6744 -83.9658 306° West 121 139 7,900  Level Indianapolis Center
06:45PM 40.6953 -84.0000 309° West 120 138 7,900  Level Indianapolis Center
06:46PM 40.7147 -84.0353 306° West 119 137 7,900  Level Indianapolis Center
06:47PM 40.7356 -84.0706 308° West 119 137 7,900  Level Indianapolis Center
06:48PM 40.7547 -84.1069 305° West 120 138 7,900  Level Indianapolis Center
06:49PM 40.7742 -84.1414 307° West 118 136 7,900  Level Indianapolis Center
06:50PM 40.7792 -84.1833 279° West 114 131 7,900  Level Indianapolis Center
06:51PM 40.7872 -84.2303 283° West 113 130 7,900  Level Indianapolis Center
06:52PM 40.7942 -84.2717 283° West 113 130 7,900  Level Indianapolis Center
06:53PM 40.8008 -84.3136 282° West 116 133 7,900  Level Indianapolis Center
06:54PM 40.8075 -84.3558 282° West 118 136 7,900  Level Indianapolis Center
06:55PM 40.8136 -84.3994 281° West 118 136 7,900  Level Indianapolis Center
06:56PM 40.8200 -84.4433 281° West 120 138 7,900 -120 Level Indianapolis Center
06:57PM 40.8278 -84.4861 284° West 119 137 7,700 -420 Descending Indianapolis Center
06:58PM 40.8364 -84.5439 281° West 128 147 7,100 -600 Descending Indianapolis Center
06:59PM 40.8458 -84.5967 283° West 137 158 6,500 -540 Descending Indianapolis Center
07:00PM 40.8539 -84.6508 281° West 141 162 6,000 -420 Descending Indianapolis Center
07:01PM 40.8583 -84.6819 281° West 144 166 5,900 -120 Descending Chicago Center
07:02PM 40.8644 -84.7300 280° West 140 161 5,900  Level Chicago Center
07:03PM 40.8719 -84.7744 283° West 133 153 5,900  Level Chicago Center
07:04PM 40.8797 -84.8206 283° West 130 150 5,900  Level Chicago Center
07:05PM 40.8861 -84.8664 280° West 129 148 5,900  Level Chicago Center
07:06PM 40.8931 -84.9142 281° West 130 150 5,900  Level Chicago Center
07:07PM 40.9031 -84.9683 284° West 129 148 5,900  Level Chicago Center
07:08PM 40.9097 -85.0164 280° West 131 151 5,900  Level Chicago Center
07:09PM 40.9164 -85.0656 280° West 132 152 5,900  Level Chicago Center
07:10PM 40.9231 -85.1125 281° West 132 152 5,900  Level Chicago Center
07:11PM 40.9303 -85.1586 282° West 130 150 5,900  Level Chicago Center
07:12PM 40.9378 -85.2064 282° West 131 151 5,900  Level Chicago Center
07:13PM 40.9458 -85.2633 281° West 131 151 5,900  Level Chicago Center
07:14PM 40.9528 -85.3094 281° West 130 150 5,900  Level Chicago Center
07:15PM 40.9594 -85.3558 281° West 129 148 5,900  Level Chicago Center
07:16PM 40.9661 -85.4022 281° West 128 147 5,900  Level Chicago Center
07:17PM 40.9731 -85.4483 281° West 127 146 5,900  Level Chicago Center
07:18PM 40.9811 -85.5039 281° West 129 148 5,900  Level Chicago Center
07:19PM 40.9875 -85.5497 280° West 128 147 5,900  Level Chicago Center
07:20PM 40.9947 -85.5972 281° West 130 150 5,900  Level Chicago Center
07:21PM 41.0011 -85.6439 280° West 130 150 5,900  Level Chicago Center
07:23PM 41.0092 -85.6917 283° West 131 151 5,900  Level Chicago Center
07:24PM 41.0150 -85.7397 279° West 132 152 5,900  Level Chicago Center
07:25PM 41.0222 -85.7897 281° West 134 154 5,900  Level Chicago Center
07:26PM 41.0314 -85.8500 281° West 137 158 5,900  Level Chicago Center
07:27PM 41.0389 -85.8997 281° West 138 159 5,900  Level Chicago Center
07:28PM 41.0458 -85.9492 281° West 135 155 5,900  Level Chicago Center
07:29PM 41.0531 -85.9986 281° West 137 158 5,900  Level Chicago Center
07:30PM 41.0586 -86.0489 278° West 137 158 6,000  Climbing Chicago Center
07:31PM 41.0653 -86.0953 281° West 134 154 6,000  Level Chicago Center
07:32PM 41.0744 -86.1536 282° West 133 153 6,000  Level Chicago Center
07:33PM 41.0806 -86.2003 280° West 130 150 6,000  Level Chicago Center
07:34PM 41.0872 -86.2458 281° West 127 146 6,000  Level Chicago Center
07:35PM 41.0936 -86.2922 280° West 128 147 6,000  Level Chicago Center
07:36PM 41.1003 -86.3389 281° West 129 148 6,000  Level Chicago Center
07:37PM 41.1086 -86.3947 281° West 129 148 6,000  Level Chicago Center
07:38PM 41.1153 -86.4419 281° West 130 150 6,000  Level Chicago Center
07:39PM 41.1219 -86.4894 281° West 130 150 6,000  Level Chicago Center
07:40PM 41.1283 -86.5367 280° West 131 151 6,000  Level Chicago Center
07:41PM 41.1344 -86.5842 280° West 129 148 6,000  Level Chicago Center
07:42PM 41.1392 -86.6292 278° West 128 147 6,000  Level Chicago Center
07:43PM 41.1461 -86.6839 280° West 126 145 6,000  Level Chicago Center
07:44PM 41.1544 -86.7311 283° West 127 146 6,000  Level Chicago Center
07:45PM 41.1633 -86.7753 285° West 127 146 6,000  Level Chicago Center
07:46PM 41.1678 -86.8222 277° West 127 146 6,000  Level Chicago Center
07:47PM 41.1736 -86.8686 279° West 128 147 6,000  Level Chicago Center
07:48PM 41.1806 -86.9236 280° West 127 146 6,000  Level Chicago Center
07:49PM 41.1875 -86.9697 281° West 128 147 6,000  Level Chicago Center
07:50PM 41.1947 -87.0172 281° West 129 148 6,000  Level Chicago Center
07:51PM 41.2006 -87.0639 279° West 130 150 6,000  Level Chicago Center
07:53PM 41.2067 -87.1108 280° West 130 150 6,000  Level Chicago Center
07:54PM 41.2133 -87.1672 279° West 130 150 6,000  Level Chicago Center
07:55PM 41.2203 -87.2136 281° West 128 147 6,000  Level Chicago Center
07:56PM 41.2261 -87.2619 279° West 131 151 6,000  Level Chicago Center
07:57PM 41.2322 -87.3089 280° West 131 151 6,000  Level Chicago Center
07:58PM 41.2389 -87.3569 280° West 132 152 6,000  Level Chicago Center
07:59PM 41.2444 -87.4039 279° West 130 150 6,000  Level Chicago Center
08:00PM 41.2519 -87.4611 280° West 131 151 6,000  Level Chicago Center
08:01PM 41.2581 -87.5083 280° West 130 150 6,000  Level Chicago Center
08:02PM 41.2642 -87.5544 280° West 129 148 6,000  Level Chicago Center
08:03PM 41.2706 -87.6014 280° West 129 148 6,000  Level Chicago Center
08:04PM 41.2769 -87.6486 280° West 130 150 6,000  Level Chicago Center
08:05PM 41.2836 -87.7036 279° West 128 147 6,000  Level Chicago Center
08:06PM 41.2897 -87.7506 280° West 128 147 6,000  Level Chicago Center
08:07PM 41.2953 -87.7967 279° West 128 147 6,000  Level Chicago Center
08:08PM 41.3008 -87.8417 279° West 126 145 6,000  Level Chicago Center
08:09PM 41.3069 -87.8881 280° West 126 145 6,000  Level Chicago Center
08:10PM 41.3142 -87.9431 280° West 126 145 6,000  Level Chicago Center
08:11PM 41.3197 -87.9889 279° West 126 145 6,000  Level Chicago Center
08:12PM 41.3256 -88.0344 280° West 125 144 6,000  Level Chicago Center
08:13PM 41.3311 -88.0797 279° West 124 143 6,000  Level Chicago Center
08:14PM 41.3358 -88.1258 278° West 125 144 6,000  Level Chicago Center
08:15PM 41.3414 -88.1717 279° West 125 144 6,000  Level Chicago Center
08:16PM 41.3475 -88.2172 280° West 125 144 6,000  Level Chicago Center
08:17PM 41.3536 -88.2722 278° West 126 145 6,000  Level Chicago Center
08:18PM 41.3592 -88.3183 279° West 126 145 6,000  Level Chicago Center
08:19PM 41.3647 -88.3639 279° West 126 145 6,000  Level Chicago Center
08:21PM 41.3702 -88.4126 279° West  Level FlightAware Approximate
08:22PM 41.3758 -88.4553 279° West 127 146 6,000  Level Chicago Center
08:23PM 41.3822 -88.5083 279° West 123 142 6,000  Level Chicago Center
08:24PM 41.3872 -88.5519 279° West 121 139 6,000  Level Chicago Center
08:25PM 41.3928 -88.5975 279° West 124 143 6,000  Level Chicago Center
08:26PM 41.3981 -88.6419 279° West 123 142 6,000  Level Chicago Center
08:27PM 41.4033 -88.6881 279° West 124 143 6,000  Level Chicago Center
08:28PM 41.4236 -88.7283 304° West 140 161 6,000  Level Chicago Center
08:29PM 41.4603 -88.7403 346° North 136 157 6,000  Level Chicago Center
08:30PM 41.4950 -88.7494 349° North 131 151 6,000  Level Chicago Center
08:31PM 41.5308 -88.7561 352° North 130 150 6,000  Level Chicago Center
08:32PM 41.5667 -88.7661 348° North 131 151 6,000  Level Chicago Center
08:33PM 41.6022 -88.7742 350° North 131 151 6,000  Level Chicago Center
08:34PM 41.6444 -88.7847 349° North 129 148 6,000  Level Chicago Center
08:35PM 41.6806 -88.7911 352° North 131 151 6,000  Level Chicago Center
08:36PM 41.7183 -88.7981 352° North 136 157 6,000  Level Chicago Center
08:37PM 41.7556 -88.8056 351° North 135 155 6,000  Level Chicago Center
08:38PM 41.7922 -88.8128 352° North 133 153 6,000  Level Chicago Center
08:39PM 41.8361 -88.8250 348° North 135 155 6,000  Level Chicago Center
08:40PM 41.8736 -88.8356 348° North 137 158 6,000  Level Chicago Center
08:41PM 41.9125 -88.8375 358° North 141 162 6,000  Level Chicago Center
08:42PM 41.9486 -88.8431 353° North 134 154 6,000  Level Chicago Center
08:43PM 41.9867 -88.8436 359° North 136 157 6,000 -180 Level Chicago Center
08:44PM 42.0328 -88.8478 356° North 138 159 5,700 -420 Descending Chicago Center
08:45PM 42.0717 -88.8428 North 146 168 5,200 -420 Descending Chicago Center
08:46PM 42.1136 -88.8342 North 152 175 4,900 -180 Descending Chicago Center
08:47PM 42.1528 -88.8311 North 138 159 4,900  Level Chicago Center
08:48PM 42.1897 -88.8267 North 134 154 4,900  Level Chicago Center
08:49PM 42.2258 -88.8247 North 132 152 4,900  Level Chicago Center
08:50PM 42.2700 -88.8206 North 133 153 4,900  Level Chicago Center
08:52PM 42.3075 -88.8147 North 135 155 4,900  Level Chicago Center
08:53PM 42.3433 -88.8111 North 136 157 4,900  Level Chicago Center
08:54PM 42.3858 -88.8086 North 132 152 4,900  Level Chicago Center
08:55PM 42.4228 -88.8031 North 133 153 4,900  Level Chicago Center
08:56PM 42.4606 -88.7975 North 135 155 4,900  Level Chicago Center
08:57PM 42.4967 -88.7958 North 131 151 4,900  Level Chicago Center
08:58PM 42.5342 -88.7908 North 133 153 4,900  Level Chicago Center
08:59PM 42.5764 -88.7869 North 131 151 4,900  Level Chicago Center
09:00PM 42.6139 -88.7814 North 134 154 4,900  Level Chicago Center
09:01PM 42.6503 -88.7803 North 132 152 4,900  Level Chicago Center
09:02PM 42.6869 -88.7736 North 132 152 4,900  Level Chicago Center
09:03PM 42.7242 -88.7706 North 133 153 4,900  Level Chicago Center
09:04PM 42.7656 -88.7814 349° North 131 151 4,900  Level Chicago Center
09:05PM 42.8014 -88.7997 339° North 134 154 4,900  Level Chicago Center
09:06PM 42.8367 -88.8161 341° North 134 154 4,900  Level Chicago Center
09:07PM 42.8725 -88.8322 342° North 134 154 4,900  Level Chicago Center
09:08PM 42.9081 -88.8483 342° North 135 155 4,900 -60 Level Chicago Center
09:09PM 42.9442 -88.8636 343° North 135 155 4,800 -480 Descending Chicago Center
09:10PM 42.9894 -88.8875 339° North 142 163 4,000 -840 Descending Chicago Center
09:11PM 43.0231 -88.9281 319° Northwest 154 177 3,100 -600 Descending Chicago Center
09:12PM 43.0575 -88.9275 North 143 165 2,800 -300 Descending Chicago Center
09:13PM 43.0783 -88.8889 54° Northeast 131 151 2,500 -240 Descending Chicago Center
09:14PM 43.0975 -88.8542 53° Northeast 122 140 2,400 -60 Descending Chicago Center
09:15PM 43.1158 -88.8203 53° Northeast 106 122 2,400  Level Chicago Center
09:16PM 43.1303 -88.7928 54° Northeast 104 120 2,400  Level Chicago Center